Estación Meteorológica Peña el Pijo (Robertgarden) [ 12/09/19 16:25:07 CET ]

Fecha Hora Presion(HPa) Temp (°C) Humedad % Rocio (°C) Viento ( m/s) Direccion Lluvia 1Hora(mm) Lluvia 24H(mm) LLuvia Total(mm)
2019-Aug-10 01:01:53 1013.100 19.1 45 6.8         363.34
2019-Aug-10 02:01:52 1013.200 17.3 51 7.0         363.34
2019-Aug-10 03:02:28 1012.800 17.9 51 7.6         363.34
2019-Aug-10 04:02:11 1012.500 17.1 55 7.9         363.34
2019-Aug-10 05:02:09 1012.600 15.9 62 8.7         363.34
2019-Aug-10 06:02:09 1012.400 18.1 59 9.9         363.34
2019-Aug-10 07:01:50 1012.800 15.3 66 9.0         363.34
2019-Aug-10 08:01:48 1013.000 14.5 72 9.5         363.34
2019-Aug-10 09:01:53 1013.000 19.6 66 13.0         363.34
2019-Aug-10 10:01:44 1013.300 26.2 48 14.3         363.34
2019-Aug-10 11:01:37 1013.300 29.6 35 12.4         363.34
2019-Aug-10 12:01:34 1012.900 32.2 28 11.3         363.34
2019-Aug-10 13:01:24 1012.600 34.5 24 10.8         363.34
2019-Aug-10 14:01:41 1012.100 37.1 17 7.5         363.34
2019-Aug-10 15:01:33 1011.900 38.3 13 4.4         363.34
2019-Aug-10 16:01:22 1011.500 38.5 12 3.6         363.34
2019-Aug-10 17:01:42 1011.000 38.9 12 3.8 1.1 N     363.34
2019-Aug-10 18:01:28 1010.600 36.6 15 5.1         363.34
2019-Aug-10 19:01:48 1010.600 35.5 25 12.2         363.34
2019-Aug-10 20:01:53 1010.700 32.1 28 11.2         363.34
2019-Aug-10 21:01:39 1011.400 28.8 30 9.5         363.34
2019-Aug-10 22:01:47 1011.800 25.4 38 10.0         363.34
2019-Aug-10 23:01:50 1012.400 22.4 46 10.1         363.34

Temperatura Máxima:38°    Temperatura Mínima:14°
Presión Máxima:1013.300 Hpa    Presión Mínima:1010.600 Hpa


Volver